| time (UTC) | temp F | wind direction | speed knots | gust knots | rain 1hr in | rain 24hr in | rain mn in | humidity % | barometer mb |
| 20260510174516 | 87 | 162 | 0.0 | 2.6 | 0.00 | 0.00 | 0.00 | 34 | 1013.5 |
| 20260510173003 | 86 | 96 | 0.9 | 3.5 | 0.00 | 0.00 | 0.00 | 34 | 1013.4 |
| 20260510171503 | 86 | 104 | 0.0 | 2.6 | 0.00 | 0.00 | 0.00 | 34 | 1013.4 |
| 20260510170003 | 86 | 21 | 0.0 | 2.6 | 0.00 | 0.00 | 0.00 | 35 | 1013.7 |
| 20260510164505 | 85 | 288 | 0.0 | 3.5 | 0.00 | 0.00 | 0.00 | 36 | 1013.9 |
| 20260510163004 | 85 | 32 | 0.0 | 1.7 | 0.00 | 0.00 | 0.00 | 39 | 1013.9 |
| 20260510161506 | 84 | 288 | 0.0 | 2.6 | 0.00 | 0.00 | 0.00 | 39 | 1014.1 |
| 20260510160009 | 84 | 130 | 0.0 | 2.6 | 0.00 | 0.00 | 0.00 | 43 | 1014.1 |
| 20260510154503 | 83 | 121 | 0.0 | 2.6 | 0.00 | 0.00 | 0.00 | 41 | 1014.3 |
| 20260510153004 | 82 | 230 | 0.0 | 1.7 | 0.00 | 0.00 | 0.00 | 45 | 1014.5 |
| 20260510151504 | 81 | 133 | 0.0 | 3.5 | 0.00 | 0.00 | 0.00 | 45 | 1014.5 |
| 20260510150004 | 80 | 172 | 0.0 | 2.6 | 0.00 | 0.00 | 0.00 | 46 | 1014.4 |
| 20260510144504 | 79 | 165 | 0.0 | 2.6 | 0.00 | 0.00 | 0.00 | 49 | 1014.3 |
| 20260510143004 | 77 | 257 | 0.0 | 1.7 | 0.00 | 0.00 | 0.00 | 53 | 1014.3 |
| 20260510141503 | 75 | 5 | 0.0 | 1.7 | 0.00 | 0.00 | 0.00 | 57 | 1014.1 |
| 20260510140004 | 73 | 261 | 0.0 | 1.7 | 0.00 | 0.00 | 0.00 | 62 | 1014.2 |
| 20260510134505 | 70 | 302 | 0.0 | 1.7 | 0.00 | 0.00 | 0.00 | 66 | 1014.2 |
| 20260510133005 | 66 | 219 | 0.0 | 1.7 | 0.00 | 0.00 | 0.00 | 69 | 1014.0 |
| 20260510131505 | 62 | 215 | 0.0 | 1.7 | 0.00 | 0.00 | 0.00 | 82 | 1013.8 |
| 20260510130009 | 59 | 225 | 0.0 | 1.7 | 0.00 | 0.00 | 0.00 | 90 | 1013.9 |
| 20260510124506 | 57 | 337 | 0.0 | 1.7 | 0.00 | 0.00 | 0.00 | 93 | 1014.2 |
| 20260510123006 | 56 | 244 | 0.0 | 0.0 | 0.00 | 0.00 | 0.00 | 94 | 1014.0 |
| 20260510121506 | 54 | 244 | 0.0 | 0.0 | 0.00 | 0.00 | 0.00 | 94 | 1013.8 |
| 20260510120006 | 53 | 244 | 0.0 | 0.0 | 0.00 | 0.00 | 0.00 | 93 | 1013.8 |
| 20260510114509 | 52 | 244 | 0.0 | 0.0 | 0.00 | 0.00 | 0.00 | 93 | 1013.5 |
| 20260510113011 | 51 | 244 | 0.0 | 0.0 | 0.00 | 0.00 | 0.00 | 92 | 1013.4 |
| 20260510111505 | 50 | 244 | 0.0 | 0.0 | 0.00 | 0.00 | 0.00 | 92 | 1013.2 |
| 20260510110016 | 50 | 244 | 0.0 | 0.0 | 0.00 | 0.00 | 0.00 | 92 | 1013.1 |
| 20260510104507 | 50 | 244 | 0.0 | 0.0 | 0.00 | 0.00 | 0.00 | 92 | 1012.9 |
| 20260510103007 | 51 | 244 | 0.0 | 0.0 | 0.00 | 0.00 | 0.00 | 91 | 1012.7 |
| 20260510101507 | 51 | 244 | 0.0 | 0.0 | 0.00 | 0.00 | 0.00 | 91 | 1012.5 |
| 20260510100010 | 51 | 244 | 0.0 | 0.0 | 0.00 | 0.00 | 0.00 | 91 | 1012.3 |
| 20260510094530 | 51 | 244 | 0.0 | 0.0 | 0.00 | 0.00 | 0.00 | 91 | 1012.2 |
| 20260510093014 | 51 | 238 | 0.0 | 0.0 | 0.00 | 0.00 | 0.00 | 91 | 1012.1 |
| 20260510091521 | 52 | 238 | 0.0 | 0.0 | 0.00 | 0.00 | 0.00 | 91 | 1012.0 |
| 20260510090015 | 52 | 238 | 0.0 | 0.0 | 0.00 | 0.00 | 0.00 | 91 | 1011.9 |
| 20260510084511 | 52 | 238 | 0.0 | 0.0 | 0.00 | 0.00 | 0.00 | 90 | 1011.9 |
| 20260510083012 | 52 | 238 | 0.0 | 0.9 | 0.00 | 0.00 | 0.00 | 91 | 1011.9 |
| 20260510081509 | 53 | 238 | 0.0 | 0.9 | 0.00 | 0.00 | 0.00 | 90 | 1011.8 |
| 20260510080013 | 53 | 238 | 0.0 | 0.0 | 0.00 | 0.00 | 0.00 | 90 | 1011.7 |
| 20260510074516 | 53 | 238 | 0.0 | 0.0 | 0.00 | 0.00 | 0.00 | 89 | 1011.6 |
| 20260510073018 | 53 | 238 | 0.0 | 0.0 | 0.00 | 0.00 | 0.00 | 88 | 1011.4 |
| 20260510071504 | 54 | 238 | 0.0 | 0.0 | 0.00 | 0.00 | 0.00 | 89 | 1011.3 |
| 20260510070012 | 54 | 238 | 0.0 | 0.0 | 0.00 | 0.00 | 0.00 | 88 | 1011.2 |
| 20260510064512 | 55 | 238 | 0.0 | 0.0 | 0.00 | 0.00 | 0.00 | 88 | 1011.1 |
| 20260510063018 | 55 | 238 | 0.0 | 0.0 | 0.00 | 0.00 | 0.00 | 87 | 1011.2 |
| 20260510061518 | 56 | 238 | 0.0 | 0.0 | 0.00 | 0.00 | 0.00 | 87 | 1011.1 |
| 20260510060008 | 56 | 238 | 0.0 | 0.0 | 0.00 | 0.00 | 0.00 | 86 | 1011.0 |
| 20260510054507 | 57 | 238 | 0.0 | 0.0 | 0.00 | 0.00 | 0.00 | 86 | 1011.1 |
| 20260510053041 | 57 | 238 | 0.0 | 0.0 | 0.00 | 0.00 | 0.00 | 86 | 1011.0 |
| 20260510051518 | 58 | 238 | 0.0 | 0.0 | 0.00 | 0.00 | 0.00 | 85 | 1011.0 |
| 20260510050020 | 58 | 238 | 0.0 | 0.0 | 0.00 | 0.00 | 0.00 | 84 | 1011.0 |
| 20260510044508 | 58 | 238 | 0.0 | 0.0 | 0.00 | 0.00 | 0.00 | 84 | 1011.0 |
| 20260510043012 | 59 | 238 | 0.0 | 0.0 | 0.00 | 0.00 | 0.00 | 83 | 1011.1 |
| 20260510041524 | 59 | 238 | 0.0 | 0.0 | 0.00 | 0.00 | 0.00 | 82 | 1011.0 |
| 20260510040034 | 59 | 218 | 0.0 | 0.0 | 0.00 | 0.00 | 0.00 | 82 | 1011.0 |
| 20260510034520 | 59 | 218 | 0.0 | 0.0 | 0.00 | 0.00 | 0.00 | 80 | 1010.9 |
| 20260510033008 | 60 | 218 | 0.0 | 0.0 | 0.00 | 0.00 | 0.00 | 79 | 1010.7 |
| 20260510031521 | 60 | 218 | 0.0 | 0.0 | 0.00 | 0.00 | 0.00 | 79 | 1010.5 |
| 20260510030015 | 61 | 218 | 0.0 | 0.0 | 0.00 | 0.00 | 0.00 | 77 | 1010.4 |
| 20260510024523 | 61 | 218 | 0.0 | 0.0 | 0.00 | 0.00 | 0.00 | 77 | 1010.3 |
| 20260510023022 | 61 | 218 | 0.0 | 0.0 | 0.00 | 0.00 | 0.00 | 76 | 1010.2 |
| 20260510021522 | 62 | 218 | 0.0 | 0.0 | 0.00 | 0.00 | 0.00 | 76 | 1010.1 |
| 20260510020014 | 62 | 218 | 0.0 | 0.0 | 0.00 | 0.00 | 0.00 | 75 | 1010.0 |
| 20260510014522 | 63 | 218 | 0.0 | 0.0 | 0.00 | 0.00 | 0.00 | 74 | 1009.8 |
| 20260510013026 | 63 | 218 | 0.0 | 0.0 | 0.00 | 0.00 | 0.00 | 72 | 1009.6 |
| 20260510011538 | 64 | 218 | 0.0 | 0.9 | 0.00 | 0.00 | 0.00 | 71 | 1009.4 |
| 20260510010016 | 65 | 218 | 0.0 | 0.9 | 0.00 | 0.00 | 0.00 | 69 | 1009.3 |
| 20260510004526 | 66 | 218 | 0.0 | 0.9 | 0.00 | 0.00 | 0.00 | 68 | 1009.3 |
| 20260510003024 | 67 | 218 | 0.0 | 0.0 | 0.00 | 0.00 | 0.00 | 66 | 1009.1 |
| 20260510001524 | 69 | 218 | 0.0 | 0.9 | 0.00 | 0.00 | 0.00 | 64 | 1009.0 |
| 20260510000035 | 70 | 218 | 0.0 | 0.9 | 0.00 | 0.00 | 0.00 | 62 | 1008.9 |
| 20260509234515 | 71 | 136 | 0.0 | 1.7 | 0.00 | 0.00 | 0.00 | 58 | 1008.6 |
| 20260509233021 | 72 | 232 | 0.0 | 1.7 | 0.00 | 0.00 | 0.00 | 59 | 1008.6 |
| 20260509231522 | 73 | 211 | 0.0 | 2.6 | 0.00 | 0.00 | 0.00 | 56 | 1008.6 |
| 20260509230026 | 74 | 225 | 0.0 | 2.6 | 0.00 | 0.00 | 0.00 | 55 | 1008.6 |
| 20260509224527 | 74 | 238 | 0.0 | 1.7 | 0.00 | 0.00 | 0.00 | 53 | 1008.5 |
| 20260509223016 | 74 | 284 | 0.0 | 1.7 | 0.00 | 0.00 | 0.00 | 52 | 1008.5 |
| 20260509221524 | 74 | 175 | 0.0 | 2.6 | 0.00 | 0.00 | 0.00 | 51 | 1008.6 |
| 20260509220025 | 75 | 232 | 0.0 | 2.6 | 0.00 | 0.00 | 0.00 | 49 | 1008.5 |
| 20260509214525 | 75 | 125 | 0.0 | 2.6 | 0.00 | 0.00 | 0.00 | 51 | 1008.5 |
| 20260509213032 | 76 | 161 | 0.0 | 2.6 | 0.00 | 0.00 | 0.00 | 48 | 1008.6 |
| 20260509211519 | 76 | 290 | 0.9 | 3.5 | 0.00 | 0.00 | 0.00 | 49 | 1008.3 |
| 20260509210023 | 76 | 211 | 0.9 | 3.5 | 0.00 | 0.00 | 0.00 | 51 | 1008.2 |
| 20260509204530 | 76 | 278 | 0.9 | 4.3 | 0.00 | 0.00 | 0.00 | 49 | 1008.2 |
| 20260509203029 | 75 | 323 | 0.0 | 3.5 | 0.00 | 0.00 | 0.00 | 52 | 1008.2 |
| 20260509201528 | 75 | 65 | 0.0 | 2.6 | 0.00 | 0.00 | 0.00 | 53 | 1008.3 |
| 20260509200022 | 74 | 281 | 0.0 | 3.5 | 0.00 | 0.00 | 0.00 | 52 | 1008.5 |
| 20260509194530 | 75 | 290 | 0.0 | 4.3 | 0.00 | 0.00 | 0.00 | 53 | 1008.6 |
| 20260509193031 | 74 | 329 | 0.9 | 4.3 | 0.00 | 0.00 | 0.00 | 56 | 1008.6 |
| 20260509191525 | 73 | 319 | 0.9 | 3.5 | 0.00 | 0.00 | 0.00 | 57 | 1009.2 |
| 20260509190004 | 72 | 91 | 0.0 | 1.7 | 0.00 | 0.00 | 0.00 | 60 | 1009.6 |
| 20260509184512 | 72 | 360 | 0.0 | 2.6 | 0.00 | 0.00 | 0.00 | 58 | 1009.9 |
| 20260509183008 | 73 | 69 | 0.0 | 3.5 | 0.00 | 0.00 | 0.00 | 61 | 1009.9 |
| 20260509181513 | 71 | 332 | 0.0 | 3.5 | 0.00 | 0.00 | 0.00 | 62 | 1010.2 |
| 20260509180018 | 71 | 166 | 0.0 | 3.5 | 0.00 | 0.00 | 0.00 | 61 | 1010.4 |